createdAt,value
2018-08-18T00:00:13.289Z,0
2018-08-18T00:00:53.743Z,0
2018-08-18T00:01:34.099Z,0
2018-08-18T00:02:14.472Z,0
2018-08-18T00:02:54.861Z,0
2018-08-18T00:03:35.293Z,0
2018-08-18T00:04:15.666Z,0
2018-08-18T00:04:56.100Z,0
2018-08-18T00:05:36.449Z,0
2018-08-18T00:06:16.885Z,0
2018-08-18T00:06:57.247Z,0
2018-08-18T00:07:37.685Z,0
2018-08-18T00:08:18.058Z,0
2018-08-18T00:08:58.466Z,0
2018-08-18T00:09:38.826Z,0
2018-08-18T00:10:19.272Z,0
2018-08-18T00:10:59.621Z,0
2018-08-18T00:11:40.064Z,0
2018-08-18T00:12:20.460Z,0
2018-08-18T00:13:00.870Z,0
2018-08-18T00:13:41.233Z,0
2018-08-18T00:14:21.637Z,0
2018-08-18T00:15:02.024Z,0
2018-08-18T00:15:42.474Z,0
2018-08-18T00:16:22.847Z,0
2018-08-18T00:17:03.241Z,0
2018-08-18T00:17:43.667Z,0
2018-08-18T00:18:24.018Z,0
2018-08-18T00:19:04.424Z,0
2018-08-18T00:19:44.816Z,0
2018-08-18T00:20:25.235Z,0
2018-08-18T00:21:05.633Z,0
2018-08-18T00:21:45.990Z,0
2018-08-18T00:22:26.431Z,0
2018-08-18T00:23:06.773Z,0
2018-08-18T00:23:47.196Z,0
2018-08-18T00:24:27.574Z,0
2018-08-18T00:25:07.948Z,0
2018-08-18T00:25:48.337Z,0
2018-08-18T00:26:28.733Z,0
2018-08-18T00:27:09.205Z,0
2018-08-18T00:27:49.612Z,0
2018-08-18T00:28:29.945Z,0
2018-08-18T00:29:10.410Z,0
2018-08-18T00:29:50.716Z,0
2018-08-18T00:30:31.167Z,0
2018-08-18T00:31:11.525Z,0
2018-08-18T00:31:51.893Z,0
2018-08-18T00:32:32.362Z,0
2018-08-18T00:33:12.715Z,0
2018-08-18T00:33:53.117Z,0
2018-08-18T00:34:33.527Z,0
2018-08-18T00:35:13.925Z,0
2018-08-18T00:35:54.373Z,0
2018-08-18T00:36:34.743Z,0
2018-08-18T00:37:15.136Z,0
2018-08-18T00:37:55.512Z,0
2018-08-18T00:38:35.963Z,0
2018-08-18T00:39:16.346Z,0
2018-08-18T00:39:56.730Z,0
2018-08-18T00:40:37.174Z,0
2018-08-18T00:41:17.585Z,0
2018-08-18T00:41:57.948Z,0
2018-08-18T00:42:38.397Z,0
2018-08-18T00:43:18.777Z,0
2018-08-18T00:43:59.148Z,0
2018-08-18T00:44:39.556Z,0
2018-08-18T00:45:19.989Z,0
2018-08-18T00:46:00.357Z,0
2018-08-18T00:46:40.810Z,0
2018-08-18T00:47:21.187Z,0
2018-08-18T00:48:01.590Z,0
2018-08-18T00:48:41.999Z,0
2018-08-18T00:49:22.377Z,0
2018-08-18T00:50:02.837Z,0
2018-08-18T00:50:43.176Z,0
2018-08-18T00:51:23.580Z,0
2018-08-18T00:52:03.955Z,0
2018-08-18T00:52:44.417Z,0
2018-08-18T00:53:24.768Z,0
2018-08-18T00:54:05.178Z,0
2018-08-18T00:54:45.575Z,0
2018-08-18T00:55:25.973Z,0
2018-08-18T00:56:06.399Z,0
2018-08-18T00:56:46.785Z,0
2018-08-18T00:57:27.144Z,0
2018-08-18T00:58:07.637Z,0
2018-08-18T00:58:47.992Z,0
2018-08-18T00:59:28.335Z,0
2018-08-18T01:00:08.725Z,0
2018-08-18T01:00:49.137Z,0
2018-08-18T01:01:29.530Z,0
2018-08-18T01:02:09.885Z,0
2018-08-18T01:02:50.287Z,0
2018-08-18T01:03:30.684Z,0
2018-08-18T01:04:11.101Z,0
2018-08-18T01:04:51.456Z,0
2018-08-18T01:05:31.883Z,0
2018-08-18T01:06:12.246Z,0
2018-08-18T01:06:52.653Z,0
2018-08-18T01:07:33.056Z,0
2018-08-18T01:08:13.451Z,0
2018-08-18T01:08:53.871Z,0
2018-08-18T01:09:34.252Z,0
2018-08-18T01:10:14.662Z,0
2018-08-18T01:10:55.056Z,0
2018-08-18T01:11:35.510Z,0
2018-08-18T01:12:15.892Z,0
2018-08-18T01:12:56.312Z,0
2018-08-18T01:13:36.748Z,0
2018-08-18T01:14:17.153Z,0
2018-08-18T01:14:57.565Z,0
2018-08-18T01:15:37.912Z,0
2018-08-18T01:16:18.242Z,0
2018-08-18T01:16:58.730Z,0
2018-08-18T01:17:39.145Z,0
2018-08-18T01:18:19.553Z,0
2018-08-18T01:18:59.963Z,0
2018-08-18T01:19:40.336Z,0
2018-08-18T01:20:20.694Z,0
2018-08-18T01:21:01.137Z,0
2018-08-18T01:21:41.469Z,0
2018-08-18T01:22:21.923Z,0
2018-08-18T01:23:02.265Z,0
2018-08-18T01:23:42.686Z,0
2018-08-18T01:26:21.304Z,0
2018-08-18T01:27:01.721Z,0
2018-08-18T01:27:42.136Z,0
2018-08-18T01:28:22.565Z,0
2018-08-18T01:29:02.921Z,0
2018-08-18T01:29:43.403Z,0
2018-08-18T01:30:23.768Z,0
2018-08-18T01:31:04.094Z,0
2018-08-18T01:31:44.503Z,0
2018-08-18T01:32:24.879Z,0
2018-08-18T01:33:05.310Z,0
2018-08-18T01:33:45.706Z,0
2018-08-18T01:34:26.076Z,0
2018-08-18T01:35:06.479Z,0
2018-08-18T01:35:46.922Z,0
2018-08-18T01:36:27.288Z,0
2018-08-18T01:37:07.684Z,0
2018-08-18T01:37:48.046Z,0
2018-08-18T01:38:28.504Z,0
2018-08-18T01:39:08.880Z,0
2018-08-18T01:39:49.325Z,0
2018-08-18T01:40:29.725Z,0
2018-08-18T01:41:10.091Z,0
2018-08-18T01:41:50.524Z,0
2018-08-18T01:42:30.908Z,0
2018-08-18T01:43:11.261Z,0
2018-08-18T01:43:51.734Z,0
2018-08-18T01:44:32.031Z,0
2018-08-18T01:45:12.436Z,0
2018-08-18T01:45:52.847Z,0
2018-08-18T01:46:33.203Z,0
2018-08-18T01:47:13.640Z,0
2018-08-18T01:47:53.998Z,0
2018-08-18T01:48:34.436Z,0
2018-08-18T01:49:14.798Z,0
2018-08-18T01:49:55.213Z,0
2018-08-18T01:50:35.595Z,0
2018-08-18T01:51:15.989Z,0
2018-08-18T01:51:56.373Z,0
2018-08-18T01:52:36.843Z,0
2018-08-18T01:53:17.184Z,0
2018-08-18T01:53:57.571Z,0
2018-08-18T01:54:38.068Z,0
2018-08-18T01:55:18.357Z,0
2018-08-18T01:55:58.755Z,0
2018-08-18T01:56:39.182Z,0
2018-08-18T01:57:19.540Z,0
2018-08-18T01:57:59.966Z,0
2018-08-18T01:58:40.329Z,0
2018-08-18T01:59:20.739Z,0
2018-08-18T02:00:01.092Z,0
2018-08-18T02:00:41.497Z,0
2018-08-18T02:01:21.914Z,0
2018-08-18T02:02:02.287Z,0
2018-08-18T02:02:42.760Z,0
2018-08-18T02:03:23.096Z,0
2018-08-18T02:04:03.522Z,0
2018-08-18T02:04:43.945Z,0
2018-08-18T02:07:11.947Z,0
2018-08-18T02:07:52.300Z,0
2018-08-18T02:08:32.736Z,0
2018-08-18T02:09:13.080Z,0
2018-08-18T02:09:53.483Z,0
2018-08-18T02:10:33.922Z,0
2018-08-18T02:11:14.279Z,0
2018-08-18T02:11:54.712Z,0
2018-08-18T02:12:35.143Z,0
2018-08-18T02:13:15.472Z,0
2018-08-18T02:13:55.913Z,0
2018-08-18T02:14:36.249Z,0
2018-08-18T02:15:16.662Z,0
2018-08-18T02:15:57.036Z,0
2018-08-18T02:16:37.404Z,0
2018-08-18T02:17:17.829Z,0
2018-08-18T02:17:58.230Z,0
2018-08-18T02:18:38.603Z,0
2018-08-18T02:19:19.044Z,0
2018-08-18T02:19:59.451Z,0
2018-08-18T02:20:39.822Z,0
2018-08-18T02:21:20.274Z,0
2018-08-18T02:22:00.599Z,0
2018-08-18T02:22:41.037Z,0
2018-08-18T02:23:21.419Z,0
2018-08-18T02:24:01.811Z,0
2018-08-18T02:24:42.244Z,0
2018-08-18T02:25:22.585Z,0
2018-08-18T02:26:03.079Z,0
2018-08-18T02:26:43.378Z,0
2018-08-18T02:27:23.784Z,0
2018-08-18T02:28:04.188Z,0
2018-08-18T02:28:44.644Z,0
2018-08-18T02:29:24.990Z,0
2018-08-18T02:30:05.413Z,0
2018-08-18T02:30:45.785Z,0
2018-08-18T02:31:26.161Z,0
2018-08-18T02:32:06.668Z,0
2018-08-18T02:32:46.964Z,0
2018-08-18T02:33:27.407Z,0
2018-08-18T02:34:07.796Z,0
2018-08-18T02:34:48.174Z,0
2018-08-18T02:35:28.549Z,0
2018-08-18T02:36:08.934Z,0
2018-08-18T02:36:49.373Z,0
2018-08-18T02:37:29.790Z,0
2018-08-18T02:38:10.187Z,0
2018-08-18T02:38:50.624Z,0
2018-08-18T02:39:30.975Z,0
2018-08-18T02:40:11.488Z,0
2018-08-18T02:40:51.798Z,0
2018-08-18T02:41:32.319Z,0
2018-08-18T02:42:12.627Z,0
2018-08-18T02:42:53.116Z,0
2018-08-18T02:43:33.411Z,0
2018-08-18T02:44:13.807Z,0
2018-08-18T02:44:54.201Z,0
2018-08-18T02:45:34.620Z,0
2018-08-18T02:46:15.064Z,0
2018-08-18T02:46:55.469Z,0
2018-08-18T02:47:35.786Z,0
2018-08-18T02:48:16.224Z,0
2018-08-18T02:48:56.570Z,0
2018-08-18T02:49:36.986Z,0
2018-08-18T02:50:17.348Z,0
2018-08-18T02:50:57.786Z,0
2018-08-18T02:51:38.226Z,0
2018-08-18T02:52:18.604Z,0
2018-08-18T02:52:58.994Z,0
2018-08-18T02:53:39.412Z,0
2018-08-18T02:54:19.826Z,0
2018-08-18T02:55:00.216Z,0
2018-08-18T02:55:40.630Z,0
2018-08-18T02:56:21.039Z,0
2018-08-18T02:57:01.425Z,0
2018-08-18T02:57:41.852Z,0
2018-08-18T02:58:22.245Z,0
2018-08-18T02:59:02.682Z,0
2018-08-18T02:59:43.090Z,0
2018-08-18T03:00:23.480Z,0
2018-08-18T03:01:03.921Z,0
2018-08-18T03:01:44.303Z,0
2018-08-18T03:02:24.748Z,0
2018-08-18T03:03:05.112Z,0
2018-08-18T03:03:45.494Z,0
2018-08-18T03:04:25.951Z,0
2018-08-18T03:05:06.350Z,0
2018-08-18T03:05:46.721Z,0
2018-08-18T03:06:27.166Z,0
2018-08-18T03:07:07.525Z,0
2018-08-18T03:07:47.944Z,0
2018-08-18T03:08:28.323Z,0
2018-08-18T03:09:08.751Z,0
2018-08-18T03:09:49.175Z,0
2018-08-18T03:10:29.519Z,0
2018-08-18T03:11:09.945Z,0
2018-08-18T03:11:50.353Z,0
2018-08-18T03:12:30.811Z,0
2018-08-18T03:13:11.166Z,0
2018-08-18T03:13:51.610Z,0
2018-08-18T03:14:32.061Z,0
2018-08-18T03:15:12.417Z,0
2018-08-18T03:15:52.818Z,0
2018-08-18T03:16:33.250Z,0
2018-08-18T03:17:13.631Z,0
2018-08-18T03:17:53.978Z,0
2018-08-18T03:18:34.405Z,0
2018-08-18T03:19:14.796Z,0
2018-08-18T03:19:55.210Z,0
2018-08-18T03:20:35.606Z,0
2018-08-18T03:21:15.999Z,0
2018-08-18T03:21:56.397Z,0
2018-08-18T03:22:36.839Z,0
2018-08-18T03:23:17.276Z,0
2018-08-18T03:23:57.578Z,0
2018-08-18T03:24:37.992Z,0
2018-08-18T03:25:18.418Z,0
2018-08-18T03:25:58.771Z,0
2018-08-18T03:26:39.217Z,0
2018-08-18T03:27:19.595Z,0
2018-08-18T03:27:59.953Z,0
2018-08-18T03:28:40.353Z,0
2018-08-18T03:29:20.785Z,0
2018-08-18T03:30:01.183Z,0
2018-08-18T03:30:41.701Z,0
2018-08-18T03:31:22.013Z,0
2018-08-18T03:32:02.381Z,0
2018-08-18T03:32:42.833Z,0
2018-08-18T03:33:23.170Z,0
2018-08-18T03:34:03.605Z,0
2018-08-18T03:34:44.012Z,0
2018-08-18T03:35:24.404Z,0
2018-08-18T03:36:04.782Z,0
2018-08-18T03:36:45.151Z,0
2018-08-18T03:37:25.565Z,0
2018-08-18T03:38:05.968Z,0
2018-08-18T03:38:46.396Z,0
2018-08-18T03:39:26.748Z,0
2018-08-18T03:40:07.198Z,0
2018-08-18T03:40:47.536Z,0
2018-08-18T03:41:27.959Z,0
2018-08-18T03:42:08.355Z,0
2018-08-18T03:42:48.772Z,0
2018-08-18T03:43:29.138Z,0
2018-08-18T03:46:07.288Z,0
2018-08-18T03:46:47.726Z,0
2018-08-18T03:47:28.111Z,0
2018-08-18T03:48:08.505Z,0
2018-08-18T03:48:48.874Z,0
2018-08-18T03:49:29.341Z,0
2018-08-18T03:50:09.710Z,0
2018-08-18T03:50:50.105Z,0
2018-08-18T03:51:30.522Z,0
2018-08-18T03:52:10.933Z,0
2018-08-18T03:52:51.341Z,0
2018-08-18T03:53:31.768Z,0
2018-08-18T03:54:12.189Z,0
2018-08-18T03:54:52.539Z,0
2018-08-18T03:55:32.923Z,0
2018-08-18T03:56:13.410Z,0
2018-08-18T03:56:53.749Z,0
2018-08-18T03:57:34.209Z,0
2018-08-18T03:58:14.578Z,0
2018-08-18T03:58:54.977Z,0
2018-08-18T03:59:35.392Z,0
2018-08-18T04:00:15.801Z,0
2018-08-18T04:00:56.176Z,0
2018-08-18T04:01:36.610Z,0
2018-08-18T04:02:16.975Z,0
2018-08-18T04:02:57.322Z,0
2018-08-18T04:03:37.745Z,0
2018-08-18T04:04:18.247Z,0
2018-08-18T04:04:58.613Z,0
2018-08-18T04:05:38.981Z,0
2018-08-18T04:06:19.398Z,0
2018-08-18T04:06:59.775Z,0
2018-08-18T04:07:40.150Z,0
2018-08-18T04:08:20.611Z,0
2018-08-18T04:09:00.998Z,0
2018-08-18T04:09:41.372Z,0
2018-08-18T04:10:21.755Z,0
2018-08-18T04:11:02.177Z,0
2018-08-18T04:11:42.565Z,0
2018-08-18T04:12:22.956Z,0
2018-08-18T04:13:03.403Z,0
2018-08-18T04:13:43.802Z,0
2018-08-18T04:14:24.158Z,0
2018-08-18T04:15:04.570Z,0
2018-08-18T04:15:45.006Z,0
2018-08-18T04:16:25.430Z,0
2018-08-18T04:17:05.827Z,0
2018-08-18T04:17:46.202Z,0
2018-08-18T04:18:26.612Z,0
2018-08-18T04:19:07.032Z,0
2018-08-18T04:19:47.451Z,0
2018-08-18T04:20:27.843Z,0
2018-08-18T04:21:08.370Z,0
2018-08-18T04:21:48.675Z,0
2018-08-18T04:24:18.553Z,0
2018-08-18T04:24:58.593Z,0
2018-08-18T04:25:39.109Z,0
2018-08-18T04:26:19.455Z,0
2018-08-18T04:26:59.840Z,0
2018-08-18T05:10:11.850Z,50
2018-08-18T05:10:51.559Z,50
2018-08-18T05:11:31.997Z,50
2018-08-18T05:12:12.343Z,50
2018-08-18T05:12:52.727Z,50
2018-08-18T05:13:33.145Z,55
2018-08-18T05:14:13.563Z,55
2018-08-18T05:14:53.923Z,60
2018-08-18T05:15:34.352Z,60
2018-08-18T05:16:14.750Z,65
2018-08-18T05:16:55.141Z,70
2018-08-18T05:17:35.547Z,70
2018-08-18T05:18:15.961Z,70
2018-08-18T05:18:56.388Z,70
2018-08-18T05:19:36.779Z,75
2018-08-18T05:20:17.173Z,75
2018-08-18T05:20:57.583Z,80
2018-08-18T05:21:37.963Z,85
2018-08-18T05:22:18.469Z,85
2018-08-18T05:22:58.814Z,90
2018-08-18T05:23:39.208Z,90
2018-08-18T05:24:19.589Z,90
2018-08-18T05:24:59.977Z,90
2018-08-18T05:25:40.408Z,95
2018-08-18T05:26:20.766Z,95
2018-08-18T05:29:42.384Z,115
2018-08-18T05:30:22.617Z,115
2018-08-18T05:31:02.981Z,120
2018-08-18T05:31:43.360Z,125
2018-08-18T05:32:23.775Z,130
2018-08-18T05:33:04.165Z,135
2018-08-18T05:33:44.580Z,140
2018-08-18T05:34:25.008Z,145
2018-08-18T05:35:05.375Z,150
2018-08-18T05:35:45.823Z,150
2018-08-18T05:36:26.262Z,160
2018-08-18T05:37:06.611Z,175
2018-08-18T05:37:47.022Z,225
2018-08-18T05:38:27.446Z,290
2018-08-18T05:39:07.867Z,355
2018-08-18T05:39:48.244Z,400
2018-08-18T05:40:28.668Z,420
2018-08-18T05:41:09.043Z,415
2018-08-18T05:41:49.450Z,385
2018-08-18T05:42:29.858Z,350
2018-08-18T05:43:10.260Z,325
2018-08-18T05:43:50.680Z,325
2018-08-18T05:44:31.108Z,330
2018-08-18T05:45:11.549Z,345
2018-08-18T05:45:51.917Z,350
2018-08-18T05:46:32.367Z,350
2018-08-18T05:47:12.715Z,360
2018-08-18T05:47:53.219Z,375
2018-08-18T05:48:33.578Z,370
2018-08-18T05:49:13.988Z,380
2018-08-18T05:49:54.447Z,385
2018-08-18T05:50:34.816Z,385
2018-08-18T05:51:15.215Z,375
2018-08-18T05:51:55.636Z,385
2018-08-18T05:52:36.045Z,400
2018-08-18T05:55:10.025Z,410
2018-08-18T05:55:50.526Z,415
2018-08-18T05:56:30.849Z,410
2018-08-18T05:57:11.279Z,415
2018-08-18T05:57:51.672Z,430
2018-08-18T05:58:32.085Z,435
2018-08-18T05:59:12.519Z,455
2018-08-18T05:59:52.946Z,465
2018-08-18T06:00:33.334Z,475
2018-08-18T06:01:13.813Z,485
2018-08-18T06:01:54.181Z,480
2018-08-18T06:02:34.572Z,480
2018-08-18T06:03:15.012Z,485
2018-08-18T06:03:55.428Z,495
2018-08-18T06:04:35.863Z,510
2018-08-18T06:05:16.234Z,525
2018-08-18T06:05:56.706Z,540
2018-08-18T06:06:37.107Z,545
2018-08-18T06:07:17.518Z,555
2018-08-18T06:07:57.956Z,560
2018-08-18T06:08:38.366Z,550
2018-08-18T06:09:18.774Z,540
2018-08-18T06:09:59.246Z,550
2018-08-18T06:10:39.569Z,565
2018-08-18T06:11:19.956Z,585
2018-08-18T06:12:00.366Z,590
2018-08-18T06:12:40.841Z,595
2018-08-18T06:13:21.251Z,590
2018-08-18T06:14:01.566Z,605
2018-08-18T06:14:41.984Z,600
2018-08-18T06:15:22.354Z,595
2018-08-18T06:16:02.819Z,605
2018-08-18T06:16:43.169Z,605
2018-08-18T06:17:23.593Z,600
2018-08-18T06:18:04.068Z,595
2018-08-18T06:18:44.486Z,610
2018-08-18T06:19:24.866Z,620
2018-08-18T06:20:05.271Z,630
2018-08-18T06:20:45.650Z,635
2018-08-18T06:21:26.082Z,620
2018-08-18T06:22:06.467Z,620
2018-08-18T06:22:46.874Z,620
2018-08-18T06:23:27.479Z,635
2018-08-18T06:25:46.892Z,690
2018-08-18T06:26:26.193Z,710
2018-08-18T06:27:06.598Z,710
2018-08-18T06:27:47.038Z,690
2018-08-18T06:28:27.458Z,710
2018-08-18T06:29:07.987Z,680
2018-08-18T06:29:48.412Z,690
2018-08-18T06:30:28.826Z,725
2018-08-18T06:31:09.194Z,730
2018-08-18T06:31:49.583Z,750
2018-08-18T06:32:30.123Z,770
2018-08-18T06:33:10.388Z,790
2018-08-18T06:33:50.885Z,800
2018-08-18T06:34:31.280Z,805
2018-08-18T06:35:11.696Z,825
2018-08-18T06:35:52.341Z,825
2018-08-18T06:36:32.468Z,840
2018-08-18T06:37:12.957Z,840
2018-08-18T06:37:53.340Z,855
2018-08-18T06:38:33.747Z,835
2018-08-18T06:39:14.172Z,820
2018-08-18T06:39:54.651Z,850
2018-08-18T06:40:34.956Z,865
2018-08-18T06:41:15.578Z,890
2018-08-18T06:41:55.779Z,915
2018-08-18T06:42:36.253Z,935
2018-08-18T06:43:16.607Z,945
2018-08-18T06:43:56.996Z,945
2018-08-18T06:44:37.435Z,955
2018-08-18T06:45:17.856Z,950
2018-08-18T06:45:58.270Z,940
2018-08-18T06:46:38.692Z,960
2018-08-18T06:47:19.107Z,980
2018-08-18T06:54:10.767Z,840
2018-08-18T06:54:45.022Z,595
2018-08-18T06:55:25.366Z,465
2018-08-18T06:56:05.793Z,445
2018-08-18T06:56:46.174Z,435
2018-08-18T06:57:26.563Z,435
2018-08-18T06:58:07.020Z,430
2018-08-18T06:58:47.448Z,430
2018-08-18T06:59:27.833Z,430
2018-08-18T07:00:08.230Z,440
2018-08-18T07:00:48.659Z,445
2018-08-18T07:01:29.100Z,440
2018-08-18T07:02:09.468Z,435
2018-08-18T07:02:49.949Z,430
2018-08-18T07:03:30.246Z,445
2018-08-18T07:04:10.661Z,460
2018-08-18T07:04:51.118Z,455
2018-08-18T07:05:31.506Z,440
2018-08-18T07:06:11.904Z,425
2018-08-18T07:06:52.391Z,410
2018-08-18T07:07:32.693Z,410
2018-08-18T07:08:13.170Z,410
2018-08-18T07:08:53.577Z,410
2018-08-18T07:09:33.953Z,405
2018-08-18T07:10:14.405Z,405
2018-08-18T07:10:54.891Z,410
2018-08-18T07:11:35.402Z,415
2018-08-18T07:12:15.850Z,420
2018-08-18T07:12:56.260Z,415
2018-08-18T07:13:36.645Z,425
2018-08-18T07:14:17.144Z,430
2018-08-18T07:14:57.482Z,430
2018-08-18T07:19:21.353Z,410
2018-08-18T07:20:01.722Z,410
2018-08-18T07:20:42.124Z,415
2018-08-18T07:21:22.546Z,410
2018-08-18T07:22:02.954Z,410
2018-08-18T07:22:43.332Z,400
2018-08-18T07:23:23.733Z,395
2018-08-18T07:24:04.147Z,395
2018-08-18T07:24:44.622Z,390
2018-08-18T07:25:24.990Z,380
2018-08-18T07:26:05.408Z,365
2018-08-18T07:26:45.811Z,355
2018-08-18T07:27:26.291Z,350
2018-08-18T07:28:06.644Z,335
2018-08-18T07:28:48.259Z,310
2018-08-18T07:29:27.712Z,290
2018-08-18T07:30:08.063Z,275
2018-08-18T07:30:48.526Z,265
2018-08-18T07:31:28.888Z,255
2018-08-18T07:32:09.337Z,245
2018-08-18T07:32:49.682Z,240
2018-08-18T07:33:30.135Z,230
2018-08-18T07:34:10.488Z,230
2018-08-18T07:34:50.937Z,220
2018-08-18T07:35:31.378Z,215
2018-08-18T07:36:11.727Z,210
2018-08-18T07:36:52.128Z,205
2018-08-18T07:37:32.618Z,200
2018-08-18T07:38:12.948Z,195
2018-08-18T07:38:53.419Z,190
2018-08-18T07:39:33.823Z,185
2018-08-18T07:40:14.187Z,185
2018-08-18T07:40:54.613Z,185
2018-08-18T07:41:34.977Z,180
2018-08-18T07:42:15.432Z,175
2018-08-18T07:42:55.872Z,175
2018-08-18T07:43:36.248Z,170
2018-08-18T07:44:16.670Z,170
2018-08-18T07:44:57.091Z,165
2018-08-18T07:45:37.467Z,165
2018-08-18T07:46:17.867Z,160
2018-08-18T07:46:58.281Z,160
2018-08-18T07:47:38.707Z,160
2018-08-18T07:48:19.077Z,155
2018-08-18T07:48:59.499Z,155
2018-08-18T07:49:39.888Z,155
2018-08-18T07:50:20.379Z,150
2018-08-18T07:51:00.838Z,150
2018-08-18T07:51:41.219Z,150
2018-08-18T07:52:21.660Z,145
2018-08-18T07:53:02.132Z,145
2018-08-18T07:53:42.554Z,145
2018-08-18T07:54:22.975Z,140
2018-08-18T07:55:03.350Z,140
2018-08-18T07:55:43.825Z,140
2018-08-18T07:56:24.231Z,140
2018-08-18T07:57:04.573Z,140
2018-08-18T07:57:44.992Z,135
2018-08-18T07:58:25.454Z,135
2018-08-18T08:01:05.991Z,135
2018-08-18T08:01:43.523Z,135
2018-08-18T08:02:23.930Z,135
2018-08-18T08:03:04.290Z,135
2018-08-18T08:03:44.689Z,130
2018-08-18T08:04:25.203Z,130
2018-08-18T08:05:05.568Z,130
2018-08-18T08:05:46.042Z,130
2018-08-18T08:06:26.359Z,130
2018-08-18T08:07:06.901Z,125
2018-08-18T08:07:47.394Z,125
2018-08-18T08:08:27.693Z,125
2018-08-18T08:09:08.089Z,125
2018-08-18T08:09:48.507Z,125
2018-08-18T08:10:28.923Z,125
2018-08-18T08:11:09.318Z,125
2018-08-18T08:11:49.726Z,130
2018-08-18T08:12:30.193Z,120
2018-08-18T08:13:10.538Z,120
2018-08-18T08:13:50.967Z,120
2018-08-18T08:14:31.396Z,120
2018-08-18T08:15:11.891Z,125
2018-08-18T08:15:52.252Z,120
2018-08-18T08:16:32.697Z,120
2018-08-18T08:17:13.098Z,115
2018-08-18T08:17:53.495Z,115
2018-08-18T08:18:33.996Z,115
2018-08-18T08:19:14.323Z,115
2018-08-18T08:19:54.730Z,115
2018-08-18T08:20:35.160Z,115
2018-08-18T08:21:15.597Z,115
2018-08-18T08:21:56.052Z,115
2018-08-18T08:22:36.446Z,115
2018-08-18T08:23:16.876Z,115
2018-08-18T08:23:57.257Z,110
2018-08-18T08:24:37.650Z,110
2018-08-18T08:25:18.096Z,110
2018-08-18T08:25:58.485Z,110
2018-08-18T08:26:38.914Z,110
2018-08-18T08:27:19.356Z,110
2018-08-18T08:27:59.783Z,110
2018-08-18T08:28:40.162Z,110
2018-08-18T08:29:20.617Z,110
2018-08-18T08:30:01.071Z,110
2018-08-18T08:30:41.537Z,110
2018-08-18T08:31:22.209Z,110
2018-08-18T08:32:02.689Z,110
2018-08-18T08:32:43.165Z,110
2018-08-18T08:33:23.635Z,110
2018-08-18T08:34:04.152Z,110
2018-08-18T08:34:45.227Z,110
2018-08-18T08:35:25.445Z,105
2018-08-18T08:36:05.916Z,105
2018-08-18T08:36:46.685Z,105
2018-08-18T08:37:27.002Z,105
2018-08-18T08:38:07.514Z,105
2018-08-18T08:38:47.986Z,105
2018-08-18T08:39:28.535Z,105
2018-08-18T08:40:09.498Z,105
2018-08-18T08:40:50.219Z,105
2018-08-18T08:41:31.359Z,105
2018-08-18T08:42:11.899Z,105
2018-08-18T08:42:52.400Z,105
2018-08-18T08:43:32.987Z,105
2018-08-18T08:44:14.242Z,110
2018-08-18T08:44:54.010Z,105
2018-08-18T08:45:34.547Z,105
2018-08-18T08:46:15.062Z,105
2018-08-18T08:46:55.505Z,105
2018-08-18T08:47:36.189Z,105
2018-08-18T08:48:16.777Z,105
2018-08-18T08:48:57.366Z,105
2018-08-18T08:49:38.055Z,105
2018-08-18T08:50:18.522Z,105
2018-08-18T08:50:58.999Z,100
2018-08-18T08:51:40.064Z,100
2018-08-18T08:52:20.291Z,100
2018-08-18T08:53:01.623Z,100
2018-08-18T08:53:42.875Z,100
2018-08-18T08:54:22.604Z,100
2018-08-18T08:55:03.063Z,100
2018-08-18T08:55:43.818Z,100
2018-08-18T08:56:24.204Z,100
2018-08-18T08:57:04.636Z,100
2018-08-18T08:57:45.028Z,95
2018-08-18T08:58:25.822Z,95
2018-08-18T08:59:05.986Z,95
2018-08-18T08:59:46.396Z,95
2018-08-18T09:00:26.888Z,95
2018-08-18T09:01:07.325Z,95
2018-08-18T09:01:48.652Z,95
2018-08-18T09:02:29.164Z,95
2018-08-18T09:03:10.389Z,95
2018-08-18T09:03:50.811Z,95
2018-08-18T09:04:31.409Z,95
2018-08-18T09:05:11.796Z,95
2018-08-18T09:05:52.687Z,95
2018-08-18T09:06:33.409Z,95
2018-08-18T09:07:13.855Z,95
2018-08-18T09:07:54.315Z,95
2018-08-18T09:08:35.042Z,95
2018-08-18T09:09:15.656Z,95
2018-08-18T09:09:56.065Z,95
2018-08-18T09:10:36.465Z,95
2018-08-18T09:11:16.919Z,95
2018-08-18T09:11:57.386Z,95
2018-08-18T09:12:37.821Z,95
2018-08-18T09:13:18.269Z,95
2018-08-18T09:14:00.590Z,90
2018-08-18T09:14:41.083Z,90
2018-08-18T09:15:21.801Z,90
2018-08-18T09:16:02.214Z,90
2018-08-18T09:16:43.818Z,90
2018-08-18T09:17:24.275Z,90
2018-08-18T09:18:04.187Z,90
2018-08-18T09:18:44.764Z,90
2018-08-18T09:19:26.281Z,90
2018-08-18T09:20:06.605Z,90
2018-08-18T09:20:47.063Z,90
2018-08-18T09:21:27.605Z,90
2018-08-18T09:22:08.773Z,90
2018-08-18T09:22:48.655Z,90
2018-08-18T09:23:29.388Z,90
2018-08-18T09:24:09.954Z,90
2018-08-18T09:24:50.639Z,90
2018-08-18T09:25:30.918Z,90
2018-08-18T09:26:11.339Z,90
2018-08-18T09:26:51.760Z,90
2018-08-18T09:27:32.199Z,90
2018-08-18T09:28:12.643Z,90
2018-08-18T09:28:53.024Z,90
2018-08-18T09:29:33.524Z,90
2018-08-18T09:30:13.961Z,90
2018-08-18T09:30:54.410Z,90
2018-08-18T09:31:35.484Z,85
2018-08-18T09:36:03.620Z,85
2018-08-18T09:36:44.043Z,85
2018-08-18T09:37:24.400Z,85
2018-08-18T09:43:45.641Z,85
2018-08-18T09:44:25.995Z,85
2018-08-18T09:45:06.438Z,85
2018-08-18T09:45:46.828Z,80
2018-08-18T09:46:27.304Z,80
2018-08-18T09:47:07.655Z,80
2018-08-18T09:47:48.204Z,80
2018-08-18T09:48:28.636Z,80
2018-08-18T09:49:09.044Z,80
2018-08-18T09:49:49.438Z,80
2018-08-18T09:50:29.904Z,80
2018-08-18T09:51:10.359Z,80
2018-08-18T09:51:50.767Z,80
2018-08-18T09:52:31.196Z,80
2018-08-18T09:53:11.596Z,80
2018-08-18T09:53:52.023Z,80
2018-08-18T09:54:32.418Z,80
2018-08-18T09:55:12.816Z,80
2018-08-18T09:55:53.227Z,80
2018-08-18T09:56:33.632Z,80
2018-08-18T09:57:14.067Z,75
2018-08-18T09:57:54.457Z,75
2018-08-18T09:58:34.923Z,75
2018-08-18T09:59:15.358Z,80
2018-08-18T09:59:55.699Z,80
2018-08-18T10:00:36.141Z,80
2018-08-18T10:01:16.556Z,80
2018-08-18T10:01:56.935Z,80
2018-08-18T10:02:37.282Z,75
2018-08-18T10:03:17.776Z,80
2018-08-18T10:03:58.151Z,80
2018-08-18T10:04:38.533Z,75
2018-08-18T10:05:18.977Z,75
2018-08-18T10:05:59.412Z,75
2018-08-18T10:06:39.864Z,80
2018-08-18T10:07:20.230Z,80
2018-08-18T10:08:00.661Z,80
2018-08-18T10:08:41.126Z,80
2018-08-18T10:09:21.826Z,75
2018-08-18T10:10:02.084Z,75
2018-08-18T10:10:42.471Z,75
2018-08-18T10:11:22.907Z,75
2018-08-18T10:12:03.651Z,75
2018-08-18T10:12:44.079Z,75
2018-08-18T10:13:24.510Z,75
2018-08-18T10:14:05.184Z,75
2018-08-18T10:14:45.644Z,75
2018-08-18T10:15:26.648Z,75
2018-08-18T10:16:07.036Z,75
2018-08-18T10:16:47.408Z,75
2018-08-18T10:17:27.845Z,75
2018-08-18T10:18:08.298Z,75
2018-08-18T10:18:48.720Z,75
2018-08-18T10:19:29.071Z,75
2018-08-18T10:20:09.624Z,75
2018-08-18T10:20:50.015Z,75
2018-08-18T10:21:30.415Z,75
2018-08-18T10:22:11.088Z,75
2018-08-18T10:22:51.336Z,75
2018-08-18T10:23:31.692Z,75
2018-08-18T10:24:12.159Z,75
2018-08-18T10:24:52.577Z,75
2018-08-18T10:25:33.017Z,75
2018-08-18T10:26:13.594Z,75
2018-08-18T10:26:55.678Z,75
2018-08-18T10:27:35.909Z,70
2018-08-18T10:28:18.412Z,70
2018-08-18T11:07:54.916Z,70
2018-08-18T11:08:35.271Z,70
2018-08-18T11:09:15.722Z,70
2018-08-18T11:09:56.176Z,70
2018-08-18T11:10:36.610Z,70
2018-08-18T11:11:16.994Z,70
2018-08-18T11:11:57.561Z,70
2018-08-18T11:12:37.833Z,70
2018-08-18T11:13:18.189Z,70
2018-08-18T11:13:58.586Z,70
2018-08-18T11:14:39.010Z,65
2018-08-18T11:15:20.101Z,65
2018-08-18T11:16:00.539Z,70
2018-08-18T11:16:41.606Z,70
2018-08-18T11:17:22.974Z,70
2018-08-18T11:18:02.794Z,70
2018-08-18T11:18:43.122Z,70
2018-08-18T11:19:23.572Z,70
2018-08-18T11:20:04.016Z,70
2018-08-18T11:20:44.373Z,70
2018-08-18T11:21:24.790Z,70
2018-08-18T11:22:05.191Z,65
2018-08-18T11:22:45.588Z,65
2018-08-18T11:23:25.981Z,65
2018-08-18T11:28:03.072Z,65
2018-08-18T11:28:43.078Z,65
2018-08-18T11:29:23.685Z,65
2018-08-18T11:30:03.919Z,70
2018-08-18T11:30:44.357Z,65
2018-08-18T11:31:24.684Z,65
2018-08-18T11:32:05.055Z,50
2018-08-18T11:32:46.671Z,65
2018-08-18T11:33:27.076Z,65
2018-08-18T11:34:08.811Z,65
2018-08-18T11:34:49.018Z,65
2018-08-18T11:35:30.579Z,70
2018-08-18T11:36:11.015Z,65
2018-08-18T11:36:51.648Z,65
2018-08-18T11:37:32.405Z,70
2018-08-18T11:38:12.737Z,70
2018-08-18T11:38:53.122Z,70
2018-08-18T11:39:33.631Z,70